Terminal Aerodrome Forecast
Issued by NWS

Home | Current Version | Previous Version | Text Only | Print | Product List | Glossary On
Versions: 1 2 3 4 5 6 7 8 9 10 11 12 13 14 15 16 17 18 19 20 21 22 23 24 25 26 27 28 29 30
136
FTUS43 KLOT 062053 AAA
TAFMDW
TAF AMD
KMDW 062053Z 0621/0718 24010G15KT P6SM SCT120
     FM070100 24010KT P6SM FEW100
     FM070600 26010KT P6SM SCT250 WS020/29040KT
     FM071100 28010G17KT P6SM SCT090 BKN150
     FM071300 01012G21KT P6SM VCSH BKN050 PROB30 0713/0716 TSRA
      BKN040CB=

USA.gov is the U.S. government's official web portal to all federal, state and local government web resources and services.